createdAt,value
2023-02-19T00:01:44.304Z,6.17
2023-02-19T00:04:14.729Z,5.37
2023-02-19T00:06:43.652Z,6.00
2023-02-19T00:09:12.128Z,5.60
2023-02-19T00:11:42.288Z,5.60
2023-02-19T00:14:12.459Z,5.47
2023-02-19T00:16:41.463Z,6.13
2023-02-19T00:19:13.524Z,5.50
2023-02-19T00:21:41.448Z,5.50
2023-02-19T00:24:11.872Z,5.53
2023-02-19T00:26:42.260Z,4.67
2023-02-19T00:29:13.314Z,5.50
2023-02-19T00:31:41.457Z,5.20
2023-02-19T00:34:10.674Z,5.57
2023-02-19T00:36:40.255Z,5.30
2023-02-19T00:39:09.636Z,5.57
2023-02-19T00:41:37.531Z,5.60
2023-02-19T00:44:09.249Z,5.60
2023-02-19T00:46:39.416Z,5.57
2023-02-19T00:49:08.568Z,5.10
2023-02-19T00:51:38.351Z,6.63
2023-02-19T00:54:07.005Z,4.93
2023-02-19T00:56:35.240Z,5.10
2023-02-19T00:59:03.164Z,5.33
2023-02-19T01:01:32.787Z,4.70
2023-02-19T01:04:00.701Z,5.00
2023-02-19T01:06:29.953Z,4.70
2023-02-19T01:08:57.870Z,5.40
2023-02-19T01:11:27.264Z,4.93
2023-02-19T01:13:59.108Z,5.17
2023-02-19T01:16:27.894Z,5.37
2023-02-19T01:18:58.816Z,5.50
2023-02-19T01:21:28.990Z,4.97
2023-02-19T01:23:57.303Z,5.30
2023-02-19T01:26:27.915Z,8.20
2023-02-19T01:28:55.951Z,5.33
2023-02-19T01:31:25.389Z,4.50
2023-02-19T01:33:56.173Z,6.10
2023-02-19T01:36:25.821Z,4.90
2023-02-19T01:38:53.826Z,6.77
2023-02-19T01:41:23.769Z,5.10
2023-02-19T01:43:58.686Z,4.90
2023-02-19T01:46:28.164Z,5.30
2023-02-19T01:48:58.305Z,4.37
2023-02-19T01:51:28.692Z,3.70
2023-02-19T01:54:00.161Z,3.27
2023-02-19T01:56:29.586Z,4.10
2023-02-19T01:58:58.085Z,3.47
2023-02-19T02:01:26.020Z,3.57
2023-02-19T02:03:54.142Z,3.30
2023-02-19T02:06:24.290Z,3.83
2023-02-19T02:09:14.260Z,3.63
2023-02-19T02:11:46.157Z,3.90
2023-02-19T02:14:14.493Z,3.77
2023-02-19T02:16:53.654Z,4.73
2023-02-19T02:19:33.056Z,3.50
2023-02-19T02:22:08.660Z,4.37
2023-02-19T02:25:08.652Z,4.10
2023-02-19T02:27:44.827Z,4.13
2023-02-19T02:30:41.257Z,4.60
2023-02-19T02:33:20.537Z,4.07
2023-02-19T02:35:52.164Z,3.40
2023-02-19T02:38:22.920Z,3.70
2023-02-19T02:40:52.248Z,3.37
2023-02-19T02:43:20.150Z,2.10
2023-02-19T02:45:49.707Z,3.00
2023-02-19T02:48:28.134Z,3.10
2023-02-19T02:50:59.330Z,3.27
2023-02-19T02:53:50.749Z,4.30
2023-02-19T02:56:19.752Z,3.27
2023-02-19T02:58:49.211Z,3.00
2023-02-19T03:01:41.225Z,3.07
2023-02-19T03:04:13.968Z,3.00
2023-02-19T03:06:43.779Z,3.30
2023-02-19T03:09:15.337Z,3.50
2023-02-19T03:12:04.559Z,3.30
2023-02-19T03:14:56.672Z,3.10
2023-02-19T03:17:51.682Z,3.60
2023-02-19T03:20:24.660Z,3.27
2023-02-19T03:22:54.146Z,3.07
2023-02-19T03:25:42.798Z,2.93
2023-02-19T03:28:13.331Z,3.20
2023-02-19T03:30:45.875Z,2.60
2023-02-19T03:33:17.874Z,2.97
2023-02-19T03:35:49.906Z,3.20
2023-02-19T03:38:21.399Z,2.80
2023-02-19T03:40:57.310Z,2.97
2023-02-19T03:43:34.758Z,3.33
2023-02-19T03:46:10.452Z,3.10
2023-02-19T03:48:46.566Z,2.97
2023-02-19T03:51:25.835Z,3.00
2023-02-19T03:54:00.095Z,3.00
2023-02-19T03:56:34.160Z,3.00
2023-02-19T03:59:09.868Z,3.13
2023-02-19T04:01:43.233Z,3.47
2023-02-19T04:04:17.891Z,3.20
2023-02-19T04:06:52.566Z,3.20
2023-02-19T04:09:22.533Z,3.70
2023-02-19T04:11:52.169Z,3.27
2023-02-19T04:14:23.566Z,3.37
2023-02-19T04:16:56.441Z,2.60
2023-02-19T04:19:28.291Z,2.97
2023-02-19T04:21:58.194Z,3.30
2023-02-19T04:24:30.443Z,3.00
2023-02-19T04:26:58.676Z,3.23
2023-02-19T04:29:26.633Z,2.90
2023-02-19T04:31:54.573Z,3.03
2023-02-19T04:34:22.500Z,2.93
2023-02-19T04:36:51.731Z,2.90
2023-02-19T04:39:19.657Z,3.13
2023-02-19T04:41:47.558Z,3.33
2023-02-19T04:44:15.427Z,3.50
2023-02-19T04:46:43.407Z,3.73
2023-02-19T04:49:11.373Z,3.50
2023-02-19T04:51:39.851Z,3.10
2023-02-19T04:54:09.374Z,4.03
2023-02-19T04:56:37.287Z,2.97
2023-02-19T04:59:05.655Z,3.10
2023-02-19T05:01:33.586Z,2.90
2023-02-19T05:04:01.585Z,2.90
2023-02-19T05:06:29.531Z,2.87
2023-02-19T05:08:57.442Z,2.93
2023-02-19T05:11:26.749Z,2.97
2023-02-19T05:13:56.447Z,2.67
2023-02-19T05:16:24.652Z,3.00
2023-02-19T05:18:52.571Z,3.33
2023-02-19T05:21:20.511Z,2.80
2023-02-19T05:23:48.368Z,2.77
2023-02-19T05:26:18.803Z,2.60
2023-02-19T05:28:49.313Z,3.00
2023-02-19T05:31:17.640Z,2.63
2023-02-19T05:33:50.067Z,2.93
2023-02-19T05:36:18.987Z,2.80
2023-02-19T05:38:46.907Z,3.00
2023-02-19T05:41:16.869Z,2.40
2023-02-19T05:43:47.954Z,3.00
2023-02-19T05:46:18.164Z,2.50
2023-02-19T05:48:46.054Z,2.23
2023-02-19T05:51:16.011Z,2.57
2023-02-19T05:53:44.472Z,3.17
2023-02-19T05:56:30.807Z,2.83
2023-02-19T05:59:01.038Z,2.43
2023-02-19T06:01:30.181Z,3.10
2023-02-19T06:03:58.862Z,2.30
2023-02-19T06:06:27.657Z,2.67
2023-02-19T06:08:56.352Z,2.30
2023-02-19T06:11:24.357Z,2.40
2023-02-19T06:13:52.238Z,2.57
2023-02-19T06:16:21.923Z,2.50
2023-02-19T06:18:50.067Z,2.53
2023-02-19T06:21:19.010Z,3.00
2023-02-19T06:23:47.619Z,2.40
2023-02-19T06:26:18.671Z,2.53
2023-02-19T06:28:47.551Z,2.17
2023-02-19T06:31:16.087Z,2.67
2023-02-19T06:33:45.704Z,2.57
2023-02-19T06:36:16.165Z,2.57
2023-02-19T06:38:44.614Z,3.90
2023-02-19T06:41:13.501Z,2.47
2023-02-19T06:43:42.147Z,2.40
2023-02-19T06:46:11.604Z,2.87
2023-02-19T06:48:40.427Z,2.47
2023-02-19T06:51:12.980Z,2.10
2023-02-19T06:53:41.001Z,2.37
2023-02-19T06:56:23.484Z,2.30
2023-02-19T06:58:51.362Z,2.20
2023-02-19T07:01:19.394Z,2.30
2023-02-19T07:03:47.415Z,2.80
2023-02-19T07:06:16.822Z,2.60
2023-02-19T07:08:44.689Z,3.30
2023-02-19T07:11:12.887Z,2.70
2023-02-19T07:13:40.879Z,3.20
2023-02-19T07:16:11.000Z,3.23
2023-02-19T07:18:40.190Z,3.30
2023-02-19T07:21:10.570Z,3.43
2023-02-19T07:23:40.151Z,3.30
2023-02-19T07:26:10.721Z,3.80
2023-02-19T07:28:38.712Z,3.90
2023-02-19T07:31:07.497Z,3.30
2023-02-19T07:33:35.544Z,3.90
2023-02-19T07:36:03.757Z,4.10
2023-02-19T07:38:31.643Z,4.23
2023-02-19T07:41:02.906Z,4.23
2023-02-19T07:43:32.923Z,4.30
2023-02-19T07:46:04.143Z,4.50
2023-02-19T07:48:32.044Z,4.50
2023-02-19T07:51:01.604Z,4.20
2023-02-19T07:53:30.050Z,4.50
2023-02-19T07:56:02.596Z,4.70
2023-02-19T07:58:30.820Z,4.00
2023-02-19T08:00:58.992Z,4.63
2023-02-19T08:03:26.128Z,4.43
2023-02-19T08:05:55.003Z,4.10
2023-02-19T08:08:22.993Z,4.57
2023-02-19T08:11:08.757Z,4.37
2023-02-19T08:13:38.141Z,4.10
2023-02-19T08:16:26.664Z,4.57
2023-02-19T08:19:01.422Z,4.10
2023-02-19T08:21:29.342Z,5.07
2023-02-19T08:23:57.240Z,3.53
2023-02-19T08:26:25.233Z,3.37
2023-02-19T08:28:54.469Z,3.70
2023-02-19T08:31:22.549Z,3.43
2023-02-19T08:33:50.516Z,3.53
2023-02-19T08:36:18.450Z,2.80
2023-02-19T08:38:46.342Z,3.07
2023-02-19T08:41:15.803Z,2.77
2023-02-19T08:43:44.549Z,2.90
2023-02-19T08:46:13.945Z,2.90
2023-02-19T08:48:41.939Z,2.80
2023-02-19T08:51:11.736Z,2.60
2023-02-19T08:53:41.580Z,2.43
2023-02-19T08:56:11.368Z,2.63
2023-02-19T08:58:39.963Z,2.60
2023-02-19T09:01:11.222Z,2.47
2023-02-19T09:03:40.849Z,2.63
2023-02-19T09:06:09.552Z,2.00
2023-02-19T09:08:37.773Z,2.40
2023-02-19T09:11:07.416Z,2.00
2023-02-19T09:13:35.348Z,2.03
2023-02-19T09:16:04.341Z,2.10
2023-02-19T09:18:32.395Z,2.07
2023-02-19T09:21:02.836Z,1.80
2023-02-19T09:23:31.076Z,2.27
2023-02-19T09:26:00.440Z,1.60
2023-02-19T09:28:28.817Z,1.87
2023-02-19T09:30:57.066Z,2.03
2023-02-19T09:33:25.030Z,1.97
2023-02-19T09:35:53.061Z,1.53
2023-02-19T09:38:22.377Z,2.43
2023-02-19T09:40:50.235Z,1.70
2023-02-19T09:43:20.307Z,1.37
2023-02-19T09:45:48.756Z,1.30
2023-02-19T09:48:16.628Z,2.20
2023-02-19T09:50:48.542Z,1.53
2023-02-19T09:53:24.464Z,1.90
2023-02-19T09:55:54.141Z,1.10
2023-02-19T09:58:30.019Z,1.80
2023-02-19T10:01:01.034Z,1.20
2023-02-19T10:03:34.201Z,1.30
2023-02-19T10:06:06.268Z,1.70
2023-02-19T10:08:37.760Z,1.20
2023-02-19T10:11:06.929Z,1.50
2023-02-19T10:13:38.470Z,1.30
2023-02-19T10:16:10.693Z,1.00
2023-02-19T10:18:42.207Z,1.30
2023-02-19T10:21:13.260Z,1.20
2023-02-19T10:23:43.741Z,1.30
2023-02-19T10:26:11.681Z,1.37
2023-02-19T10:28:39.676Z,1.70
2023-02-19T10:31:18.812Z,1.03
2023-02-19T10:33:53.260Z,1.10
2023-02-19T10:36:32.129Z,1.17
2023-02-19T10:39:03.953Z,1.00
2023-02-19T10:41:32.390Z,1.33
2023-02-19T10:44:06.512Z,0.90
2023-02-19T10:46:37.990Z,1.20
2023-02-19T10:49:08.479Z,1.10
2023-02-19T10:51:39.358Z,0.90
2023-02-19T10:54:16.979Z,1.10
2023-02-19T10:56:44.963Z,0.93
2023-02-19T10:59:23.912Z,1.00
2023-02-19T11:01:56.516Z,1.10
2023-02-19T11:04:25.475Z,1.00
2023-02-19T11:06:53.533Z,1.00
2023-02-19T11:09:30.091Z,0.80
2023-02-19T11:11:59.489Z,0.73
2023-02-19T11:14:28.595Z,1.03
2023-02-19T11:16:58.482Z,1.03
2023-02-19T11:19:39.596Z,0.63
2023-02-19T11:22:22.001Z,0.87
2023-02-19T11:24:56.659Z,0.83
2023-02-19T11:27:26.516Z,0.80
2023-02-19T11:29:54.457Z,1.20
2023-02-19T11:32:29.172Z,0.87
2023-02-19T11:35:17.806Z,0.80
2023-02-19T11:37:56.704Z,0.70
2023-02-19T11:40:36.421Z,0.70
2023-02-19T11:43:11.898Z,0.70
2023-02-19T11:45:45.890Z,0.80
2023-02-19T11:48:25.943Z,0.70
2023-02-19T11:51:02.421Z,1.07
2023-02-19T11:53:33.311Z,0.70
2023-02-19T11:56:15.223Z,1.00
2023-02-19T11:59:02.033Z,0.90
2023-02-19T12:02:00.159Z,0.80
2023-02-19T12:04:56.428Z,1.00
2023-02-19T12:07:46.770Z,1.37
2023-02-19T12:10:21.823Z,1.10
2023-02-19T12:13:05.282Z,0.90
2023-02-19T12:15:47.047Z,0.90
2023-02-19T12:18:27.656Z,1.20
2023-02-19T12:21:05.889Z,1.10
2023-02-19T12:24:11.172Z,1.10
2023-02-19T12:26:48.109Z,1.00
2023-02-19T12:29:31.962Z,0.90
2023-02-19T12:32:37.412Z,1.03
2023-02-19T12:35:42.065Z,0.73
2023-02-19T12:38:27.007Z,0.90
2023-02-19T12:41:13.081Z,0.90
2023-02-19T12:43:46.897Z,0.97
2023-02-19T12:46:21.376Z,1.00
2023-02-19T12:48:56.490Z,1.20
2023-02-19T12:51:29.619Z,0.83
2023-02-19T12:54:02.453Z,0.80
2023-02-19T12:56:35.463Z,0.77
2023-02-19T12:59:08.364Z,0.90
2023-02-19T13:01:44.069Z,1.10
2023-02-19T13:04:23.748Z,0.90
2023-02-19T13:06:57.481Z,1.00
2023-02-19T13:09:31.711Z,0.90
2023-02-19T13:12:05.037Z,1.10
2023-02-19T13:14:37.464Z,0.87
2023-02-19T13:17:18.049Z,0.90
2023-02-19T13:19:47.690Z,1.10
2023-02-19T13:22:41.078Z,1.10
2023-02-19T13:25:10.508Z,1.10
2023-02-19T13:27:59.877Z,1.03
2023-02-19T13:30:39.897Z,0.90
2023-02-19T13:33:24.994Z,1.20
2023-02-19T13:36:06.891Z,0.90
2023-02-19T13:38:38.554Z,0.60
2023-02-19T13:41:06.920Z,1.10
2023-02-19T13:43:38.729Z,0.80
2023-02-19T13:46:09.741Z,1.07
2023-02-19T13:48:40.857Z,0.83
2023-02-19T13:51:46.758Z,0.80
2023-02-19T13:54:22.864Z,1.13
2023-02-19T13:56:51.468Z,1.00
2023-02-19T13:59:40.841Z,1.10
2023-02-19T14:02:30.548Z,1.20
2023-02-19T14:05:01.936Z,0.90
2023-02-19T14:07:55.400Z,0.90
2023-02-19T14:10:57.696Z,1.00
2023-02-19T14:14:11.620Z,0.93
2023-02-19T14:17:08.417Z,1.17
2023-02-19T14:19:57.550Z,0.70
2023-02-19T14:22:51.371Z,0.90
2023-02-19T14:25:42.895Z,0.83
2023-02-19T14:28:27.048Z,1.00
2023-02-19T14:30:56.924Z,0.80
2023-02-19T14:33:27.210Z,0.97
2023-02-19T14:35:59.694Z,1.10
2023-02-19T14:38:33.686Z,0.73
2023-02-19T14:41:02.118Z,1.30
2023-02-19T14:43:30.921Z,0.67
2023-02-19T14:46:02.324Z,0.90
2023-02-19T14:48:34.522Z,0.70
2023-02-19T14:51:07.715Z,0.87
2023-02-19T14:53:42.858Z,0.70
2023-02-19T14:56:20.980Z,1.10
2023-02-19T14:59:07.854Z,1.23
2023-02-19T15:01:35.875Z,1.03
2023-02-19T15:04:04.081Z,0.60
2023-02-19T15:06:33.417Z,0.80
2023-02-19T15:09:05.978Z,0.90
2023-02-19T15:11:35.982Z,0.73
2023-02-19T15:14:06.767Z,1.47
2023-02-19T15:16:37.333Z,0.77
2023-02-19T15:19:08.558Z,0.80
2023-02-19T15:21:39.826Z,1.13
2023-02-19T15:24:09.316Z,0.80
2023-02-19T15:26:40.479Z,1.00
2023-02-19T15:29:12.032Z,0.90
2023-02-19T15:31:46.801Z,1.10
2023-02-19T15:34:19.957Z,0.73
2023-02-19T15:36:49.342Z,1.00
2023-02-19T15:39:23.603Z,0.80
2023-02-19T15:41:56.296Z,0.97
2023-02-19T15:44:36.675Z,0.90
2023-02-19T15:47:10.731Z,1.30
2023-02-19T15:49:50.231Z,1.27
2023-02-19T15:52:35.409Z,1.10
2023-02-19T15:55:13.526Z,1.47
2023-02-19T15:57:48.161Z,1.20
2023-02-19T16:00:20.743Z,1.00
2023-02-19T16:02:49.606Z,1.00
2023-02-19T16:05:25.769Z,1.07
2023-02-19T16:08:07.835Z,1.20
2023-02-19T16:10:37.236Z,1.53
2023-02-19T16:13:08.119Z,1.43
2023-02-19T16:15:36.603Z,1.20
2023-02-19T16:18:04.706Z,1.57
2023-02-19T16:20:35.602Z,1.90
2023-02-19T16:23:11.514Z,1.50
2023-02-19T16:25:43.985Z,1.40
2023-02-19T16:28:13.848Z,1.43
2023-02-19T16:30:42.499Z,1.37
2023-02-19T16:33:34.731Z,1.50
2023-02-19T16:36:22.545Z,1.40
2023-02-19T16:39:18.718Z,1.57
2023-02-19T16:42:13.465Z,1.80
2023-02-19T16:44:41.991Z,1.77
2023-02-19T16:47:24.158Z,2.17
2023-02-19T16:49:52.929Z,1.90
2023-02-19T16:52:20.952Z,1.83
2023-02-19T16:54:50.007Z,2.20
2023-02-19T16:57:20.438Z,2.03
2023-02-19T16:59:48.642Z,2.10
2023-02-19T17:02:20.210Z,1.83
2023-02-19T17:04:49.626Z,2.50
2023-02-19T17:07:19.248Z,1.70
2023-02-19T17:09:47.450Z,1.80
2023-02-19T17:12:19.080Z,1.63
2023-02-19T17:14:47.117Z,1.77
2023-02-19T17:17:15.130Z,1.37
2023-02-19T17:19:43.083Z,1.43
2023-02-19T17:22:13.833Z,1.43
2023-02-19T17:24:41.820Z,1.30
2023-02-19T17:27:12.163Z,1.40
2023-02-19T17:29:41.459Z,1.97
2023-02-19T17:32:09.789Z,1.13
2023-02-19T17:34:37.981Z,1.60
2023-02-19T17:37:05.913Z,1.40
2023-02-19T17:39:33.868Z,1.60
2023-02-19T17:42:02.843Z,1.60
2023-02-19T17:44:30.759Z,1.80
2023-02-19T17:47:00.274Z,1.67
2023-02-19T17:49:28.741Z,1.47
2023-02-19T17:51:56.969Z,2.10
2023-02-19T17:54:24.910Z,1.60
2023-02-19T17:56:52.839Z,1.97
2023-02-19T17:59:20.843Z,2.17
2023-02-19T18:01:48.785Z,1.73
2023-02-19T18:04:18.169Z,2.37
2023-02-19T18:06:46.257Z,1.80
2023-02-19T18:09:15.250Z,1.90
2023-02-19T18:11:46.290Z,2.33
2023-02-19T18:14:14.249Z,2.00
2023-02-19T18:16:49.477Z,2.00
2023-02-19T18:19:20.076Z,2.33
2023-02-19T18:21:48.281Z,1.87
2023-02-19T18:24:16.388Z,1.83
2023-02-19T18:26:44.631Z,2.50
2023-02-19T18:29:12.721Z,2.33
2023-02-19T18:31:40.954Z,2.07
2023-02-19T18:34:18.039Z,1.90
2023-02-19T18:36:48.164Z,2.07
2023-02-19T18:39:16.818Z,2.30
2023-02-19T18:41:47.936Z,2.40
2023-02-19T18:44:18.979Z,2.20
2023-02-19T18:46:46.912Z,2.30
2023-02-19T18:49:15.221Z,2.00
2023-02-19T18:51:44.020Z,2.30
2023-02-19T18:54:13.568Z,2.20
2023-02-19T18:56:43.078Z,2.00
2023-02-19T18:59:11.499Z,2.03
2023-02-19T19:01:39.495Z,2.17
2023-02-19T19:04:08.213Z,2.23
2023-02-19T19:06:36.738Z,2.30
2023-02-19T19:09:06.188Z,2.10
2023-02-19T19:11:36.204Z,2.50
2023-02-19T19:14:04.163Z,2.27
2023-02-19T19:16:32.090Z,2.00
2023-02-19T19:18:59.988Z,1.47
2023-02-19T19:21:28.060Z,1.93
2023-02-19T19:23:55.963Z,1.50
2023-02-19T19:26:24.111Z,1.63
2023-02-19T19:28:53.498Z,1.73
2023-02-19T19:31:22.677Z,1.87
2023-02-19T19:33:51.225Z,2.10
2023-02-19T19:36:21.836Z,1.90
2023-02-19T19:38:50.031Z,2.00
2023-02-19T19:41:19.683Z,2.17
2023-02-19T19:43:47.995Z,2.90
2023-02-19T19:46:19.789Z,1.70
2023-02-19T19:48:48.642Z,1.90
2023-02-19T19:51:16.906Z,2.40
2023-02-19T19:53:48.508Z,2.20
2023-02-19T19:56:17.011Z,2.63
2023-02-19T19:58:44.985Z,2.20
2023-02-19T20:01:14.449Z,2.20
2023-02-19T20:03:43.949Z,2.00
2023-02-19T20:06:11.979Z,2.10
2023-02-19T20:08:39.912Z,2.10
2023-02-19T20:11:07.842Z,2.03
2023-02-19T20:13:35.747Z,2.40
2023-02-19T20:16:03.850Z,2.20
2023-02-19T20:18:31.783Z,2.10
2023-02-19T20:21:01.094Z,2.07
2023-02-19T20:23:28.991Z,1.90
2023-02-19T20:25:57.570Z,1.77
2023-02-19T20:28:25.539Z,2.47
2023-02-19T20:30:53.548Z,2.50
2023-02-19T20:33:21.518Z,2.77
2023-02-19T20:35:49.454Z,2.77
2023-02-19T20:38:18.966Z,2.33
2023-02-19T20:40:46.904Z,2.93
2023-02-19T20:43:15.096Z,2.90
2023-02-19T20:45:45.777Z,2.47
2023-02-19T20:48:16.560Z,2.57
2023-02-19T20:50:44.624Z,3.57
2023-02-19T20:53:12.590Z,2.60
2023-02-19T20:55:41.927Z,2.87
2023-02-19T20:58:09.821Z,2.43
2023-02-19T21:00:37.903Z,3.20
2023-02-19T21:03:08.945Z,2.73
2023-02-19T21:05:37.774Z,3.13
2023-02-19T21:08:05.727Z,2.20
2023-02-19T21:10:34.465Z,2.40
2023-02-19T21:13:03.739Z,2.30
2023-02-19T21:15:31.681Z,3.00
2023-02-19T21:17:59.584Z,2.60
2023-02-19T21:20:27.544Z,2.00
2023-02-19T21:22:55.416Z,2.40
2023-02-19T21:25:23.313Z,2.40
2023-02-19T21:27:51.262Z,2.37
2023-02-19T21:30:20.841Z,2.30
2023-02-19T21:32:48.819Z,2.30
2023-02-19T21:35:16.900Z,2.13
2023-02-19T21:37:45.429Z,2.13
2023-02-19T21:40:14.306Z,2.50
2023-02-19T21:42:42.242Z,2.20
2023-02-19T21:45:10.365Z,2.47
2023-02-19T21:47:39.591Z,3.80
2023-02-19T21:50:08.640Z,1.87
2023-02-19T21:52:36.594Z,2.17
2023-02-19T21:55:04.536Z,1.97
2023-02-19T21:57:33.693Z,2.10
2023-02-19T22:00:01.750Z,2.47
2023-02-19T22:02:29.719Z,1.67
2023-02-19T22:04:59.503Z,2.10
2023-02-19T22:07:27.633Z,1.80
2023-02-19T22:09:55.591Z,2.03
2023-02-19T22:12:23.537Z,1.57
2023-02-19T22:14:51.648Z,1.80
2023-02-19T22:17:19.727Z,2.23
2023-02-19T22:19:47.739Z,1.60
2023-02-19T22:22:17.276Z,2.00
2023-02-19T22:24:45.206Z,2.20
2023-02-19T22:27:13.100Z,2.80
2023-02-19T22:29:41.051Z,2.10
2023-02-19T22:32:09.157Z,2.43
2023-02-19T22:34:40.400Z,2.13
2023-02-19T22:37:08.642Z,1.90
2023-02-19T22:39:38.087Z,2.00
2023-02-19T22:42:06.376Z,1.80
2023-02-19T22:44:35.311Z,2.60
2023-02-19T22:47:03.351Z,2.10
2023-02-19T22:49:31.240Z,2.20
2023-02-19T22:52:02.510Z,1.90
2023-02-19T22:54:30.441Z,2.07
2023-02-19T22:56:59.743Z,2.13
2023-02-19T22:59:27.828Z,2.50
2023-02-19T23:01:55.922Z,1.83
2023-02-19T23:04:25.310Z,2.23
2023-02-19T23:06:53.723Z,2.17
2023-02-19T23:09:23.498Z,2.10
2023-02-19T23:11:52.333Z,1.90
2023-02-19T23:14:24.201Z,1.67
2023-02-19T23:16:52.149Z,1.57
2023-02-19T23:19:20.096Z,1.90
2023-02-19T23:21:48.206Z,1.87
2023-02-19T23:24:16.554Z,2.10
2023-02-19T23:26:44.951Z,1.53
2023-02-19T23:29:15.569Z,1.53
2023-02-19T23:31:44.985Z,2.53
2023-02-19T23:34:13.053Z,1.93
2023-02-19T23:36:42.050Z,1.90
2023-02-19T23:39:11.174Z,2.03
2023-02-19T23:41:39.362Z,1.87
2023-02-19T23:44:07.412Z,1.87
2023-02-19T23:46:35.268Z,2.00
2023-02-19T23:49:04.557Z,2.27
2023-02-19T23:51:32.441Z,2.20
2023-02-19T23:54:00.417Z,2.13
2023-02-19T23:56:30.447Z,1.97
2023-02-19T23:58:58.523Z,2.53
